Lizella, Georgia
Current Conditions -  °F | °C
As of 10:53 PM on Saturday 25 Oct 2014 (Local Time) from KMCN Reporting Station
Clear Clear  
Wind Chill: 12°   Ceiling: Unl
Heat Index: 12°   Visibility: 10mi
Dew Point: 11°   Wind: 5mph
Humidity: 93%   Direction: 270°W
Pressure: 30.02"   Gusts: NA
Location:  32.81°N, 83.82°W
Report Text: KMCN 260253Z AUTO 27004KT 10SM CLR 12/11 A3002 RMK AO2 SLP165 T01170106 53006 TSNO
Loading
Personal Weather Stations






























Interactive Weather Map
Tropical Storm Tracking
New forecast layout! Learn more

10-Day Weather Forecast

Advertisements
Track Severe Weather on mobile